Time;durP1;ratioP1;P1;durP2;ratioP2;P2;SDS_P1;SDS_P2;PMS_P1;PMS_P2;Temp;Humidity;BMP_temperature;BMP_pressure;BME280_temperature;BME280_humidity;BME280_pressure;Samples;Min_cycle;Max_cycle;Signal;HPM_P1;HPM_P2
2020/12/14 00:02:17;;;;;;;5.10;4.70;;;6.20;99.90;;;;;;10245185;28;20730;-79
2020/12/14 00:07:19;;;;;;;5.20;4.80;;;6.10;99.90;;;;;;10235411;29;20727;-79
2020/12/14 00:12:20;;;;;;;6.00;5.37;;;5.90;99.90;;;;;;10209887;29;20357;-78
2020/12/14 00:17:23;;;;;;;5.57;5.07;;;5.80;99.90;;;;;;10235419;29;20204;-79
2020/12/14 00:22:25;;;;;;;5.33;4.93;;;5.70;99.90;;;;;;10210119;29;20251;-78
2020/12/14 00:27:27;;;;;;;5.60;5.20;;;5.60;99.90;;;;;;10210317;29;20223;-80
2020/12/14 00:32:29;;;;;;;5.33;4.93;;;5.60;99.90;;;;;;10198757;29;20239;-79
2020/12/14 00:37:31;;;;;;;5.57;5.17;;;5.60;99.90;;;;;;10211415;29;20304;-79
2020/12/14 00:42:32;;;;;;;5.30;4.90;;;5.60;99.90;;;;;;10201138;29;20661;-78
2020/12/14 00:47:36;;;;;;;5.90;5.40;;;5.60;99.90;;;;;;10229768;29;20425;-79
2020/12/14 00:52:37;;;;;;;5.40;5.00;;;5.60;99.90;;;;;;10194995;29;20213;-79
2020/12/14 00:57:39;;;;;;;6.77;6.27;;;5.70;99.90;;;;;;10201593;29;20242;-79
2020/12/14 01:02:41;;;;;;;6.27;5.77;;;5.80;99.90;;;;;;10240386;29;20220;-79
2020/12/14 01:07:43;;;;;;;7.43;6.73;;;5.90;99.90;;;;;;10240254;29;20300;-79
2020/12/14 01:12:45;;;;;;;7.00;6.40;;;6.00;99.90;;;;;;10240933;29;20225;-79
2020/12/14 01:17:47;;;;;;;6.60;6.00;;;6.00;99.90;;;;;;10242201;29;20198;-80
2020/12/14 01:22:49;;;;;;;6.77;5.60;;;6.10;99.90;;;;;;10223060;29;20228;-79
2020/12/14 01:27:50;;;;;;;5.77;5.27;;;6.00;99.90;;;;;;10215715;29;20219;-79
2020/12/14 01:32:53;;;;;;;5.43;5.03;;;6.00;99.90;;;;;;10213580;23;20351;-81
2020/12/14 01:37:55;;;;;;;6.23;5.63;;;5.90;99.90;;;;;;10222470;29;20627;-80
2020/12/14 01:42:56;;;;;;;5.93;5.53;;;5.80;99.90;;;;;;10221558;29;20249;-81
2020/12/14 01:48:03;;;;;;;6.87;6.10;;;5.80;99.90;;;;;;10206176;29;20708;-81
2020/12/14 01:53:07;;;;;;;6.90;6.37;;;5.70;99.90;;;;;;10229543;29;20755;-81
2020/12/14 01:58:09;;;;;;;6.60;6.10;;;5.70;99.90;;;;;;10236467;29;20284;-81
2020/12/14 02:03:11;;;;;;;7.10;6.50;;;5.70;99.90;;;;;;10239941;29;20223;-80
2020/12/14 02:08:13;;;;;;;6.77;6.27;;;5.80;99.90;;;;;;10228916;29;20224;-81
2020/12/14 02:13:15;;;;;;;6.20;5.63;;;5.80;99.90;;;;;;10222090;29;20289;-80
2020/12/14 02:18:17;;;;;;;6.90;6.30;;;5.70;99.90;;;;;;10203628;29;20201;-81
2020/12/14 02:23:19;;;;;;;7.23;6.63;;;5.60;99.90;;;;;;10200878;29;20237;-80
2020/12/14 02:28:21;;;;;;;6.87;6.20;;;5.50;99.90;;;;;;10241975;29;20229;-80
2020/12/14 02:33:23;;;;;;;6.70;6.10;;;5.50;99.90;;;;;;10214958;29;20232;-81
2020/12/14 02:38:24;;;;;;;6.53;5.93;;;5.40;99.90;;;;;;10218029;29;20200;-80
2020/12/14 02:43:27;;;;;;;6.83;6.20;;;5.40;99.90;;;;;;10218747;29;20213;-80
2020/12/14 02:48:28;;;;;;;6.30;5.80;;;5.30;99.90;;;;;;10219220;29;20244;-81
2020/12/14 02:53:30;;;;;;;6.80;6.30;;;5.30;99.90;;;;;;10224611;29;20217;-81
2020/12/14 02:58:33;;;;;;;5.97;5.47;;;5.30;99.90;;;;;;10223511;29;20197;-81
2020/12/14 03:03:34;;;;;;;6.47;5.97;;;5.30;99.90;;;;;;10232560;28;20244;-80
2020/12/14 03:08:36;;;;;;;6.77;6.20;;;5.30;99.90;;;;;;10260288;29;20229;-81
2020/12/14 03:13:38;;;;;;;7.30;6.70;;;5.20;99.90;;;;;;10253475;28;20292;-81
2020/12/14 03:18:40;;;;;;;6.53;5.97;;;5.20;99.90;;;;;;10263784;29;20220;-81
2020/12/14 03:23:41;;;;;;;6.17;5.67;;;5.20;99.90;;;;;;10239973;28;20262;-80
2020/12/14 03:28:44;;;;;;;6.23;5.83;;;5.20;99.90;;;;;;10230366;29;20258;-80
2020/12/14 03:33:46;;;;;;;6.67;6.13;;;5.20;99.90;;;;;;10215783;29;20225;-80
2020/12/14 03:38:48;;;;;;;7.70;6.90;;;5.10;99.90;;;;;;10215877;29;20197;-80
2020/12/14 03:43:51;;;;;;;7.00;6.33;;;5.10;99.90;;;;;;10221596;29;20598;-80
2020/12/14 03:48:56;;;;;;;7.03;6.43;;;5.10;99.90;;;;;;10217744;29;20233;-80
2020/12/14 03:53:57;;;;;;;7.37;6.77;;;5.00;99.90;;;;;;10218636;29;20496;-81
2020/12/14 03:59:01;;;;;;;6.43;5.93;;;4.90;99.90;;;;;;10234708;29;20558;-80
2020/12/14 04:04:02;;;;;;;7.03;6.43;;;4.80;99.90;;;;;;10243999;28;20224;-81
2020/12/14 04:09:04;;;;;;;6.27;5.67;;;4.80;99.90;;;;;;10239712;29;20315;-80
2020/12/14 04:14:06;;;;;;;6.27;5.77;;;4.70;99.90;;;;;;10254351;28;20216;-81
2020/12/14 04:19:09;;;;;;;7.10;6.50;;;4.70;99.90;;;;;;10254699;29;20228;-81
2020/12/14 04:24:10;;;;;;;6.50;6.00;;;4.60;99.90;;;;;;10237759;28;20221;-80
2020/12/14 04:29:12;;;;;;;6.70;6.10;;;4.60;99.90;;;;;;10257419;28;20216;-81
2020/12/14 04:34:14;;;;;;;6.30;5.80;;;4.60;99.90;;;;;;10225291;29;20261;-81
2020/12/14 04:39:16;;;;;;;5.63;5.23;;;4.50;99.90;;;;;;10225190;29;20245;-81
2020/12/14 04:44:19;;;;;;;5.93;5.43;;;4.50;99.90;;;;;;10225313;29;20224;-80
2020/12/14 04:49:20;;;;;;;5.80;5.40;;;4.40;99.90;;;;;;10227947;29;20597;-80
2020/12/14 04:54:23;;;;;;;5.77;5.27;;;4.30;99.90;;;;;;10224794;29;20621;-80
2020/12/14 04:59:26;;;;;;;5.90;5.40;;;4.30;99.90;;;;;;10220655;29;20209;-80
2020/12/14 05:04:27;;;;;;;5.47;5.07;;;4.20;99.90;;;;;;10229857;29;20228;-80
2020/12/14 05:09:29;;;;;;;6.20;5.70;;;4.10;99.90;;;;;;10221429;29;20652;-80
2020/12/14 05:14:35;;;;;;;5.90;5.40;;;4.10;99.90;;;;;;10206230;29;20227;-80
2020/12/14 05:19:37;;;;;;;5.80;5.20;;;4.10;99.90;;;;;;10206148;29;20646;-80
2020/12/14 05:24:38;;;;;;;6.53;6.03;;;4.10;99.90;;;;;;10222371;29;20307;-81
2020/12/14 05:29:41;;;;;;;7.63;6.63;;;4.10;99.90;;;;;;10226740;29;20661;-81
2020/12/14 05:34:43;;;;;;;6.90;6.30;;;4.10;99.90;;;;;;10226194;29;20236;-81
2020/12/14 05:39:45;;;;;;;5.67;5.17;;;4.10;99.90;;;;;;10219246;29;20290;-81
2020/12/14 05:44:49;;;;;;;6.33;5.83;;;4.10;99.90;;;;;;10224735;29;20217;-79
2020/12/14 05:49:51;;;;;;;6.27;5.77;;;4.10;99.90;;;;;;10224993;29;20227;-80
2020/12/14 05:54:55;;;;;;;6.67;6.00;;;4.10;99.90;;;;;;10224126;29;20678;-81
2020/12/14 06:00:01;;;;;;;6.67;6.13;;;4.10;99.90;;;;;;10226910;29;20186;-80
2020/12/14 06:05:04;;;;;;;6.73;6.13;;;4.10;99.90;;;;;;10198615;29;20321;-80
2020/12/14 06:10:09;;;;;;;7.20;6.50;;;4.10;99.90;;;;;;10189575;29;20245;-81
2020/12/14 06:15:14;;;;;;;6.57;5.97;;;4.10;99.90;;;;;;10204570;29;20232;-80
2020/12/14 06:20:19;;;;;;;6.80;6.20;;;4.10;99.90;;;;;;10268623;29;20189;-80
2020/12/14 06:25:24;;;;;;;7.33;6.30;;;4.10;99.90;;;;;;10263242;28;20361;-80
2020/12/14 06:30:30;;;;;;;6.70;6.10;;;4.10;99.90;;;;;;10264226;29;20250;-80
2020/12/14 06:35:45;;;;;;;6.30;5.80;;;4.10;99.90;;;;;;10230065;29;20236;-80
2020/12/14 06:41:10;;;;;;;7.60;7.00;;;4.10;99.90;;;;;;10253620;29;20202;-80
2020/12/14 06:46:12;;;;;;;7.57;6.97;;;4.10;99.90;;;;;;10250963;28;20220;-80
2020/12/14 06:51:16;;;;;;;9.23;8.20;;;4.20;99.90;;;;;;10258459;29;20225;-80
2020/12/14 06:56:47;;;;;;;7.60;6.90;;;4.30;99.90;;;;;;10271080;28;20449;-79
2020/12/14 07:01:56;;;;;;;11.03;7.07;;;4.40;99.90;;;;;;10232584;29;20287;-80
2020/12/14 07:06:58;;;;;;;8.00;7.20;;;4.40;99.90;;;;;;10242846;29;20589;-78
2020/12/14 07:12:24;;;;;;;12.90;9.30;;;4.40;99.90;;;;;;10246503;28;20196;-80
2020/12/14 07:17:28;;;;;;;9.40;7.83;;;4.40;99.90;;;;;;10241133;29;20210;-78
2020/12/14 07:22:34;;;;;;;9.70;8.13;;;4.40;99.90;;;;;;10243862;28;20227;-78
2020/12/14 07:27:35;;;;;;;10.70;9.60;;;4.30;99.90;;;;;;10248266;29;20593;-78
2020/12/14 07:32:40;;;;;;;10.83;9.27;;;4.30;99.90;;;;;;10244195;29;20235;-78
2020/12/14 07:37:42;;;;;;;10.87;9.37;;;4.40;99.90;;;;;;10223762;29;20201;-78
2020/12/14 07:42:44;;;;;;;12.47;11.17;;;4.40;99.90;;;;;;10225493;29;20793;-78
2020/12/14 07:47:50;;;;;;;12.80;10.63;;;4.60;99.90;;;;;;10212413;29;20220;-78
2020/12/14 07:52:53;;;;;;;11.30;10.20;;;4.80;99.90;;;;;;10210664;28;20243;-78
2020/12/14 07:57:55;;;;;;;11.80;9.53;;;4.90;99.90;;;;;;10228006;29;20197;-78
2020/12/14 08:03:01;;;;;;;12.70;10.57;;;5.00;99.90;;;;;;10224500;29;20231;-78
2020/12/14 08:08:05;;;;;;;11.67;10.47;;;5.00;99.90;;;;;;10222627;29;20224;-78
2020/12/14 08:13:09;;;;;;;9.80;8.90;;;5.00;99.90;;;;;;10244210;28;20746;-78
2020/12/14 08:18:12;;;;;;;10.27;9.23;;;5.10;99.90;;;;;;10255257;29;20196;-78
2020/12/14 08:23:17;;;;;;;11.00;9.77;;;5.10;99.90;;;;;;10244601;28;20740;-78
2020/12/14 08:28:29;;;;;;;10.07;9.07;;;5.20;99.90;;;;;;10234406;29;20295;-78
2020/12/14 08:33:33;;;;;;;10.23;9.33;;;5.20;99.90;;;;;;10230715;29;20233;-78
2020/12/14 08:38:35;;;;;;;12.63;11.00;;;5.20;99.90;;;;;;10246473;29;20193;-79
2020/12/14 08:43:37;;;;;;;11.30;10.20;;;5.20;99.90;;;;;;10236220;28;20573;-79
2020/12/14 08:48:48;;;;;;;11.70;10.50;;;5.20;99.90;;;;;;10227051;29;20305;-79
2020/12/14 08:53:52;;;;;;;9.90;8.93;;;5.30;99.90;;;;;;10235573;28;20226;-78
2020/12/14 08:58:55;;;;;;;11.70;10.50;;;5.30;99.90;;;;;;10257948;28;20649;-78
2020/12/14 09:03:58;;;;;;;10.33;9.40;;;5.30;99.90;;;;;;10234643;29;20638;-78
2020/12/14 09:09:05;;;;;;;11.47;10.37;;;5.40;99.90;;;;;;10215076;29;20217;-79
2020/12/14 09:14:07;;;;;;;12.43;11.13;;;5.40;99.90;;;;;;10215849;29;20225;-78
2020/12/14 09:19:10;;;;;;;10.03;8.87;;;5.50;99.90;;;;;;10224565;29;20621;-78
2020/12/14 09:24:14;;;;;;;10.23;9.23;;;5.60;99.90;;;;;;10222222;29;20217;-79
2020/12/14 09:29:16;;;;;;;13.30;11.60;;;5.60;99.90;;;;;;10221153;29;20243;-78
2020/12/14 09:34:19;;;;;;;14.63;12.63;;;5.70;99.90;;;;;;10226720;29;20704;-78
2020/12/14 09:39:22;;;;;;;13.33;11.83;;;5.80;99.90;;;;;;10260306;29;20195;-78
2020/12/14 09:44:24;;;;;;;13.90;10.80;;;5.90;99.90;;;;;;10237025;29;20669;-78
2020/12/14 09:49:27;;;;;;;13.63;11.17;;;6.00;99.90;;;;;;10225628;29;20220;-80
2020/12/14 09:54:32;;;;;;;10.93;9.70;;;6.10;99.90;;;;;;10227019;29;20261;-80
2020/12/14 09:59:33;;;;;;;13.50;9.47;;;6.30;99.90;;;;;;10201104;29;20193;-79
2020/12/14 10:04:36;;;;;;;9.10;8.17;;;6.40;99.90;;;;;;10199451;29;20434;-78
2020/12/14 10:09:40;;;;;;;10.47;8.30;;;6.60;99.90;;;;;;10223269;29;20256;-81
2020/12/14 10:14:41;;;;;;;8.53;7.63;;;6.80;99.90;;;;;;10232600;29;20221;-80
2020/12/14 10:19:44;;;;;;;8.17;7.30;;;6.90;99.90;;;;;;10250051;29;20233;-78
2020/12/14 10:24:45;;;;;;;7.60;6.90;;;7.20;99.90;;;;;;10247125;28;20950;-78
2020/12/14 10:29:47;;;;;;;7.60;6.93;;;7.50;99.90;;;;;;10234616;29;20437;-79
2020/12/14 10:34:50;;;;;;;6.97;6.30;;;7.80;99.90;;;;;;10242915;29;20231;-80
2020/12/14 10:39:51;;;;;;;7.20;6.50;;;8.00;99.90;;;;;;10248692;29;20674;-79
2020/12/14 10:44:53;;;;;;;6.27;5.40;;;8.30;99.90;;;;;;10235660;29;20324;-79
2020/12/14 10:49:55;;;;;;;6.20;5.63;;;8.50;99.90;;;;;;10257605;28;20561;-78
2020/12/14 10:54:57;;;;;;;6.50;5.90;;;8.70;99.90;;;;;;10247025;28;20711;-80
2020/12/14 11:00:06;;;;;;;8.70;7.80;;;8.80;99.90;;;;;;10237552;29;20201;-80
2020/12/14 11:05:10;;;;;;;6.00;5.50;;;9.00;99.90;;;;;;10241797;29;20256;-80
2020/12/14 11:10:12;;;;;;;6.40;5.80;;;9.10;99.90;;;;;;10247367;29;20362;-79
2020/12/14 11:15:14;;;;;;;6.30;5.70;;;9.20;99.90;;;;;;10217232;29;20253;-79
2020/12/14 11:20:17;;;;;;;8.40;6.27;;;9.30;99.90;;;;;;10220967;29;20239;-79
2020/12/14 11:25:18;;;;;;;5.90;5.30;;;9.40;99.90;;;;;;10229615;29;20236;-79
2020/12/14 11:30:20;;;;;;;5.23;4.77;;;9.50;99.90;;;;;;10226704;29;20231;-79
2020/12/14 11:35:23;;;;;;;6.60;5.20;;;9.50;99.90;;;;;;10227515;29;20244;-79
2020/12/14 11:40:24;;;;;;;5.70;5.10;;;9.60;99.90;;;;;;10225279;28;20205;-79
2020/12/14 11:45:27;;;;;;;6.23;5.73;;;9.70;99.90;;;;;;10235344;28;20362;-80
2020/12/14 11:50:30;;;;;;;7.80;6.53;;;9.80;99.90;;;;;;10220646;29;20331;-79
2020/12/14 11:55:31;;;;;;;5.87;5.37;;;9.80;99.90;;;;;;10218123;29;20235;-79
2020/12/14 12:00:33;;;;;;;7.53;5.70;;;9.80;99.90;;;;;;10226308;29;20231;-80
2020/12/14 12:05:36;;;;;;;5.30;4.90;;;9.80;99.80;;;;;;10227025;29;20398;-80
2020/12/14 12:10:37;;;;;;;6.07;5.57;;;9.90;99.90;;;;;;10234639;29;20657;-80
2020/12/14 12:15:39;;;;;;;5.33;4.83;;;9.90;99.90;;;;;;10248665;28;20252;-80
2020/12/14 12:20:42;;;;;;;5.93;4.60;;;10.00;99.90;;;;;;10249440;29;20199;-81
2020/12/14 12:25:43;;;;;;;5.43;4.97;;;10.10;99.90;;;;;;10243703;28;20271;-80
2020/12/14 12:30:45;;;;;;;5.63;4.80;;;10.10;99.90;;;;;;10242183;29;20335;-81
2020/12/14 12:36:40;;;;;;;5.50;5.00;;;10.10;99.90;;;;;;10241378;29;20228;-81
2020/12/14 12:41:50;;;;;;;4.87;4.37;;;10.10;99.90;;;;;;10065906;28;20205;-80
2020/12/14 12:46:53;;;;;;;6.10;5.50;;;10.00;99.90;;;;;;10208454;29;20205;-79
2020/12/14 12:51:58;;;;;;;6.10;5.40;;;10.10;99.90;;;;;;10227638;29;20209;-78
2020/12/14 12:57:03;;;;;;;6.83;6.13;;;10.20;99.70;;;;;;10231545;29;20740;-79
2020/12/14 13:02:08;;;;;;;6.57;5.97;;;10.10;99.60;;;;;;10242882;28;20251;-82
2020/12/14 13:07:10;;;;;;;6.30;5.70;;;10.10;99.80;;;;;;10208988;29;20287;-81
2020/12/14 13:12:18;;;;;;;6.53;5.90;;;10.10;99.80;;;;;;10235691;28;20224;-82
2020/12/14 13:17:20;;;;;;;6.30;5.70;;;10.00;99.70;;;;;;10227165;29;20615;-81
2020/12/14 13:22:21;;;;;;;7.17;5.97;;;10.00;99.90;;;;;;10218534;28;20685;-79
2020/12/14 13:27:24;;;;;;;5.90;5.40;;;10.00;99.70;;;;;;10227896;29;20759;-79
2020/12/14 13:32:26;;;;;;;7.50;6.20;;;10.00;99.90;;;;;;10245114;29;20237;-80
2020/12/14 13:37:27;;;;;;;6.60;5.97;;;10.00;99.90;;;;;;10236988;29;20208;-82
2020/12/14 13:42:30;;;;;;;7.20;6.50;;;9.90;99.90;;;;;;10234753;29;20234;-81
2020/12/14 13:47:32;;;;;;;7.70;6.80;;;9.90;99.90;;;;;;10242945;29;20611;-81
2020/12/14 13:52:34;;;;;;;9.17;7.00;;;9.80;99.90;;;;;;10241938;28;20245;-80
2020/12/14 13:57:38;;;;;;;6.93;6.30;;;9.80;99.90;;;;;;10206941;29;20236;-81
2020/12/14 14:02:39;;;;;;;8.07;7.07;;;9.70;99.90;;;;;;10234522;28;20236;-81
2020/12/14 14:07:41;;;;;;;7.03;6.00;;;9.70;99.90;;;;;;10251037;29;20220;-81
2020/12/14 14:12:43;;;;;;;7.20;5.90;;;9.80;99.90;;;;;;10219984;28;20224;-81
2020/12/14 14:17:45;;;;;;;9.63;6.50;;;9.80;99.90;;;;;;10252836;29;20263;-82
2020/12/14 14:22:47;;;;;;;7.80;6.53;;;9.90;99.90;;;;;;10230901;29;20220;-80
2020/12/14 14:27:49;;;;;;;6.43;5.83;;;9.90;99.90;;;;;;10212788;29;20221;-82
2020/12/14 14:32:51;;;;;;;6.97;6.37;;;9.90;99.90;;;;;;10241021;29;20280;-81
2020/12/14 14:37:53;;;;;;;7.70;6.90;;;9.80;99.90;;;;;;10226087;29;20255;-82
2020/12/14 14:42:56;;;;;;;7.10;6.50;;;9.80;99.90;;;;;;10240324;28;20251;-81
2020/12/14 14:47:58;;;;;;;6.97;6.30;;;9.80;99.90;;;;;;10261078;29;20224;-83
2020/12/14 14:53:03;;;;;;;9.50;6.80;;;9.70;99.90;;;;;;10259891;28;20696;-83
2020/12/14 14:58:05;;;;;;;7.50;6.80;;;9.70;99.90;;;;;;10244697;29;20197;-80
2020/12/14 15:03:07;;;;;;;6.77;6.17;;;9.60;99.90;;;;;;10242044;29;20693;-80
2020/12/14 15:08:08;;;;;;;7.80;7.07;;;9.60;99.90;;;;;;10224449;29;20360;-82
2020/12/14 15:13:11;;;;;;;6.93;6.33;;;9.50;99.90;;;;;;10216253;29;20240;-82
2020/12/14 15:18:13;;;;;;;7.80;7.10;;;9.40;99.90;;;;;;10216802;29;20280;-82
2020/12/14 15:23:17;;;;;;;8.13;6.63;;;9.30;99.90;;;;;;10216341;29;20241;-82
2020/12/14 15:28:21;;;;;;;7.90;6.67;;;9.20;99.90;;;;;;10200488;29;20217;-82
2020/12/14 15:33:22;;;;;;;7.60;6.93;;;9.10;99.90;;;;;;10201214;29;20247;-81
2020/12/14 15:38:25;;;;;;;10.10;8.80;;;9.00;99.90;;;;;;10222913;29;20225;-82
2020/12/14 15:43:30;;;;;;;10.97;8.27;;;8.90;99.90;;;;;;10217749;29;20217;-82
2020/12/14 15:48:32;;;;;;;9.17;7.57;;;8.80;99.90;;;;;;10218987;29;20220;-81
2020/12/14 15:53:33;;;;;;;8.73;7.40;;;8.70;99.90;;;;;;10202648;29;20226;-80
2020/12/14 15:58:36;;;;;;;16.70;11.47;;;8.60;99.90;;;;;;10221338;29;20193;-82
2020/12/14 16:03:38;;;;;;;30.37;22.77;;;8.50;99.90;;;;;;10204944;29;20253;-82
2020/12/14 16:08:39;;;;;;;8.40;7.37;;;8.50;99.90;;;;;;10199787;29;20522;-82
2020/12/14 16:13:42;;;;;;;7.40;6.70;;;8.40;99.90;;;;;;10216534;29;20588;-81
2020/12/14 16:18:44;;;;;;;7.93;7.23;;;8.30;99.90;;;;;;10214987;29;20224;-80
2020/12/14 16:24:02;;;;;;;8.53;7.60;;;8.30;99.90;;;;;;10216075;29;20603;-82
2020/12/14 16:29:05;;;;;;;7.13;6.43;;;8.20;99.90;;;;;;10207357;29;20248;-82
2020/12/14 16:34:06;;;;;;;9.30;7.60;;;8.10;99.90;;;;;;10224362;29;20265;-82
2020/12/14 16:39:08;;;;;;;9.90;7.13;;;8.10;99.90;;;;;;10227421;29;20221;-81
2020/12/14 16:44:11;;;;;;;8.33;7.53;;;8.00;99.90;;;;;;10227465;29;20209;-82
2020/12/14 16:49:12;;;;;;;8.83;7.93;;;8.10;99.90;;;;;;10225181;29;20209;-80
2020/12/14 16:54:14;;;;;;;9.63;8.63;;;8.10;99.90;;;;;;10224749;29;20245;-82
2020/12/14 16:59:16;;;;;;;10.23;8.80;;;8.10;99.90;;;;;;10227580;29;20217;-82
2020/12/14 17:04:21;;;;;;;10.07;8.50;;;8.10;99.90;;;;;;10227418;29;20225;-82
2020/12/14 17:09:26;;;;;;;9.17;8.17;;;8.20;99.90;;;;;;10209126;29;20599;-82
2020/12/14 17:14:29;;;;;;;10.80;8.50;;;8.20;99.90;;;;;;10208244;29;20709;-82
2020/12/14 17:19:30;;;;;;;10.57;9.57;;;8.10;99.90;;;;;;10228506;29;20281;-80
2020/12/14 17:24:35;;;;;;;84.27;46.10;;;8.20;99.90;;;;;;10225535;29;20228;-81
2020/12/14 17:29:38;;;;;;;41.87;30.63;;;8.20;99.90;;;;;;10230280;29;20245;-81
2020/12/14 17:34:42;;;;;;;10.57;9.47;;;8.20;99.90;;;;;;10251975;28;20320;-81
2020/12/14 17:39:44;;;;;;;10.40;9.20;;;8.20;99.90;;;;;;10262102;29;20583;-81
2020/12/14 17:44:46;;;;;;;10.03;8.97;;;8.20;99.90;;;;;;10239537;29;20255;-80
2020/12/14 17:49:49;;;;;;;11.80;10.03;;;8.20;99.90;;;;;;10240381;29;20477;-81
2020/12/14 17:54:51;;;;;;;12.83;11.00;;;8.20;99.90;;;;;;10220095;29;20275;-79
2020/12/14 17:59:56;;;;;;;13.50;12.10;;;8.30;99.90;;;;;;10237540;29;20548;-78
2020/12/14 18:04:59;;;;;;;12.57;11.27;;;8.30;99.90;;;;;;10241476;29;20234;-77
2020/12/14 18:15:30;;;;;;;12.03;10.83;;;8.40;99.90;;;;;;10212807;29;20622;-78
2020/12/14 18:20:36;;;;;;;13.80;12.20;;;8.40;99.90;;;;;;10218297;29;20209;-78
2020/12/14 18:25:40;;;;;;;14.93;12.37;;;8.50;99.90;;;;;;10201063;29;20228;-79
2020/12/14 18:30:43;;;;;;;14.80;11.27;;;8.50;99.90;;;;;;10224041;29;20438;-79
2020/12/14 21:28:18;;;;;;;12.37;11.07;;;6.80;99.90;;;;;;10214734;29;20231;-78
2020/12/14 21:33:26;;;;;;;14.03;12.00;;;6.80;99.90;;;;;;10245730;28;20260;-81
2020/12/14 21:38:30;;;;;;;13.43;10.70;;;6.70;99.90;;;;;;10249890;29;20654;-80
2020/12/14 21:43:31;;;;;;;12.77;10.70;;;6.60;99.90;;;;;;10228440;28;20225;-77
2020/12/14 21:48:34;;;;;;;14.70;11.90;;;6.60;99.90;;;;;;10223554;29;20232;-80
2020/12/14 21:53:35;;;;;;;14.17;11.70;;;6.50;99.90;;;;;;10179230;29;20796;-79
2020/12/14 21:58:37;;;;;;;10.37;9.30;;;6.40;99.90;;;;;;10178515;29;20284;-78
2020/12/14 22:03:42;;;;;;;24.23;17.77;;;6.40;99.90;;;;;;10192761;29;20229;-78
2020/12/14 22:08:43;;;;;;;11.67;10.13;;;6.40;99.90;;;;;;10221825;29;20245;-79
2020/12/14 22:13:46;;;;;;;13.07;10.90;;;6.40;99.90;;;;;;10245362;29;20662;-79
2020/12/14 22:18:49;;;;;;;13.00;11.47;;;6.50;99.90;;;;;;10214385;29;20197;-78
2020/12/14 22:23:51;;;;;;;13.30;11.13;;;6.50;99.90;;;;;;10234178;29;20583;-78
2020/12/14 22:28:53;;;;;;;11.27;9.30;;;6.50;99.90;;;;;;10192837;29;20261;-79
2020/12/14 22:33:56;;;;;;;9.53;8.63;;;6.50;99.90;;;;;;10209548;28;20233;-78
2020/12/14 22:38:57;;;;;;;11.27;9.70;;;6.60;99.90;;;;;;10208558;29;20193;-79
2020/12/14 22:43:59;;;;;;;9.23;8.33;;;6.60;99.90;;;;;;10223563;29;20221;-78
2020/12/14 22:49:02;;;;;;;11.00;9.90;;;6.60;99.90;;;;;;10208390;29;20632;-81
2020/12/14 22:54:03;;;;;;;10.47;9.33;;;6.60;99.90;;;;;;10207031;29;20777;-78
2020/12/14 22:59:05;;;;;;;11.47;10.37;;;6.50;99.90;;;;;;10213537;29;20703;-79
2020/12/14 23:04:07;;;;;;;13.87;11.10;;;6.50;99.90;;;;;;10211441;29;20316;-78
2020/12/14 23:09:09;;;;;;;13.90;11.53;;;6.40;99.90;;;;;;10207928;29;20217;-81
2020/12/14 23:14:15;;;;;;;11.87;10.67;;;6.40;99.90;;;;;;10200624;29;20225;-78
2020/12/14 23:19:19;;;;;;;11.50;10.40;;;6.30;99.90;;;;;;10199978;29;20308;-79
2020/12/14 23:24:20;;;;;;;12.60;10.00;;;6.40;99.90;;;;;;10207695;29;20698;-78
2020/12/14 23:29:22;;;;;;;10.80;9.70;;;6.40;99.90;;;;;;10187410;29;20217;-78
2020/12/14 23:34:25;;;;;;;9.87;8.87;;;6.50;99.90;;;;;;10207043;29;20265;-79
2020/12/14 23:39:26;;;;;;;9.90;8.90;;;6.60;99.90;;;;;;10210743;29;20725;-79
2020/12/14 23:44:28;;;;;;;10.23;9.13;;;6.60;99.90;;;;;;10238601;28;20694;-79
2020/12/14 23:49:31;;;;;;;9.93;8.93;;;6.60;99.90;;;;;;10213308;29;20227;-79
2020/12/14 23:54:33;;;;;;;13.43;8.40;;;6.70;99.90;;;;;;10245391;29;20279;-80
2020/12/14 23:59:35;;;;;;;11.93;8.17;;;6.70;99.90;;;;;;10192009;29;20547;-79
